sensor_id;sensor_type;location;lat;lon;timestamp;pressure;altitude;pressure_sealevel;temperature;humidity
45621;BME280;31345;51.522;10.702;2023-04-10T13:23:44;99308.75;;;18.29;45.82
45621;BME280;31345;51.522;10.702;2023-04-10T13:26:12;99295.44;;;17.63;48.07
45621;BME280;31345;51.522;10.702;2023-04-10T13:28:39;99297.38;;;17.11;50.39
45621;BME280;31345;51.522;10.702;2023-04-10T13:31:07;99286.53;;;17.15;49.50
45621;BME280;31345;51.522;10.702;2023-04-10T13:33:39;99280.44;;;17.04;49.38
45621;BME280;31345;51.522;10.702;2023-04-10T13:36:12;99283.47;;;17.09;50.41
45621;BME280;31345;51.522;10.702;2023-04-10T13:38:40;99282.78;;;17.27;49.96
45621;BME280;31345;51.522;10.702;2023-04-10T13:41:09;99279.84;;;17.40;50.48
45621;BME280;31345;51.522;10.702;2023-04-10T13:43:42;99276.41;;;17.00;47.81
45621;BME280;31345;51.522;10.702;2023-04-10T13:46:15;99271.50;;;16.85;51.24
45621;BME280;31345;51.522;10.702;2023-04-10T13:48:43;99274.41;;;16.72;50.17
45621;BME280;31345;51.522;10.702;2023-04-10T13:51:15;99257.44;;;16.75;49.73
45621;BME280;31345;51.522;10.702;2023-04-10T13:53:43;99259.53;;;16.71;51.83
45621;BME280;31345;51.522;10.702;2023-04-10T13:56:17;99253.94;;;16.55;52.01
45621;BME280;31345;51.522;10.702;2023-04-10T13:58:49;99252.28;;;16.64;50.70
45621;BME280;31345;51.522;10.702;2023-04-10T14:01:22;99250.66;;;16.82;51.28
45621;BME280;31345;51.522;10.702;2023-04-10T14:03:54;99240.22;;;16.71;48.42
45621;BME280;31345;51.522;10.702;2023-04-10T14:06:27;99237.44;;;16.72;49.89
45621;BME280;31345;51.522;10.702;2023-04-10T14:09:00;99244.50;;;16.52;51.32
45621;BME280;31345;51.522;10.702;2023-04-10T14:11:30;99239.75;;;16.46;50.97
45621;BME280;31345;51.522;10.702;2023-04-10T14:13:58;99230.44;;;16.42;48.78
45621;BME280;31345;51.522;10.702;2023-04-10T14:16:30;99232.38;;;16.40;49.95
45621;BME280;31345;51.522;10.702;2023-04-10T14:18:58;99223.50;;;16.41;50.06
45621;BME280;31345;51.522;10.702;2023-04-10T14:21:31;99225.41;;;16.29;51.16
45621;BME280;31345;51.522;10.702;2023-04-10T14:24:03;99224.41;;;16.20;47.64
45621;BME280;31345;51.522;10.702;2023-04-10T14:26:38;99216.13;;;16.03;50.47
45621;BME280;31345;51.522;10.702;2023-04-10T14:29:06;99218.84;;;16.23;49.49
45621;BME280;31345;51.522;10.702;2023-04-10T14:31:39;99209.66;;;16.17;47.75
45621;BME280;31345;51.522;10.702;2023-04-10T14:34:07;99198.97;;;16.19;49.09
45621;BME280;31345;51.522;10.702;2023-04-10T14:36:40;99203.06;;;16.43;50.37
45621;BME280;31345;51.522;10.702;2023-04-10T14:39:07;99193.25;;;16.45;48.75
45621;BME280;31345;51.522;10.702;2023-04-10T14:41:42;99196.03;;;16.53;48.32
45621;BME280;31345;51.522;10.702;2023-04-10T14:44:09;99175.31;;;16.58;47.05
45621;BME280;31345;51.522;10.702;2023-04-10T14:46:42;99169.91;;;16.80;48.49
45621;BME280;31345;51.522;10.702;2023-04-10T14:49:14;99171.56;;;16.51;48.05
45621;BME280;31345;51.522;10.702;2023-04-10T14:51:44;99171.84;;;16.48;47.38
45621;BME280;31345;51.522;10.702;2023-04-10T14:54:14;99160.72;;;16.54;48.32
45621;BME280;31345;51.522;10.702;2023-04-10T14:56:51;99166.03;;;16.84;49.66
45621;BME280;31345;51.522;10.702;2023-04-10T14:59:24;99159.03;;;17.22;49.48
45621;BME280;31345;51.522;10.702;2023-04-10T15:01:52;99157.16;;;17.43;46.65
45621;BME280;31345;51.522;10.702;2023-04-10T15:04:24;99140.16;;;17.55;48.24
45621;BME280;31345;51.522;10.702;2023-04-10T15:06:53;99131.81;;;17.60;46.82
45621;BME280;31345;51.522;10.702;2023-04-10T15:09:26;99121.28;;;17.40;49.09
45621;BME280;31345;51.522;10.702;2023-04-10T15:11:55;99118.50;;;17.42;48.81
45621;BME280;31345;51.522;10.702;2023-04-10T15:14:23;99106.88;;;17.24;46.10
45621;BME280;31345;51.522;10.702;2023-04-10T15:16:55;99119.44;;;17.13;49.76
45621;BME280;31345;51.522;10.702;2023-04-10T15:19:28;99104.63;;;17.20;48.32
45621;BME280;31345;51.522;10.702;2023-04-10T15:22:01;99107.63;;;17.07;47.18
45621;BME280;31345;51.522;10.702;2023-04-10T15:24:33;99102.06;;;17.10;47.78
45621;BME280;31345;51.522;10.702;2023-04-10T15:27:07;99095.22;;;17.07;47.89
45621;BME280;31345;51.522;10.702;2023-04-10T15:29:41;99088.41;;;17.15;47.25
45621;BME280;31345;51.522;10.702;2023-04-10T15:32:14;99092.19;;;17.02;48.63
45621;BME280;31345;51.522;10.702;2023-04-10T15:34:47;99092.91;;;17.04;50.49
45621;BME280;31345;51.522;10.702;2023-04-10T15:37:20;99089.75;;;17.29;49.80
45621;BME280;31345;51.522;10.702;2023-04-10T15:39:54;99085.81;;;16.95;46.63
45621;BME280;31345;51.522;10.702;2023-04-10T15:42:28;99084.00;;;16.95;48.11
45621;BME280;31345;51.522;10.702;2023-04-10T15:45:00;99069.19;;;16.65;48.65
45621;BME280;31345;51.522;10.702;2023-04-10T15:47:33;99059.78;;;16.32;49.86
45621;BME280;31345;51.522;10.702;2023-04-10T15:50:06;99057.13;;;16.32;48.04
45621;BME280;31345;51.522;10.702;2023-04-10T15:52:39;99049.50;;;16.29;47.10
45621;BME280;31345;51.522;10.702;2023-04-10T15:55:07;99056.97;;;16.24;49.48
45621;BME280;31345;51.522;10.702;2023-04-10T15:57:44;99050.72;;;16.25;47.22
45621;BME280;31345;51.522;10.702;2023-04-10T16:00:13;99042.53;;;16.08;50.27
45621;BME280;31345;51.522;10.702;2023-04-10T16:02:46;99038.19;;;15.98;50.87
45621;BME280;31345;51.522;10.702;2023-04-10T16:05:18;99037.78;;;15.92;50.38
45621;BME280;31345;51.522;10.702;2023-04-10T16:07:51;99028.47;;;15.78;50.59
45621;BME280;31345;51.522;10.702;2023-04-10T16:10:24;99026.78;;;15.67;51.14
45621;BME280;31345;51.522;10.702;2023-04-10T16:12:58;99017.34;;;15.65;50.99
45621;BME280;31345;51.522;10.702;2023-04-10T16:15:29;99013.47;;;15.69;52.16
45621;BME280;31345;51.522;10.702;2023-04-10T16:17:59;99008.22;;;15.69;51.04
45621;BME280;31345;51.522;10.702;2023-04-10T16:20:33;99007.66;;;15.75;52.69
45621;BME280;31345;51.522;10.702;2023-04-10T16:23:01;98994.06;;;15.70;50.78
45621;BME280;31345;51.522;10.702;2023-04-10T16:25:34;98995.03;;;15.69;52.72
45621;BME280;31345;51.522;10.702;2023-04-10T16:28:08;98987.94;;;15.50;52.62
45621;BME280;31345;51.522;10.702;2023-04-10T16:30:36;98991.94;;;15.44;53.21
45621;BME280;31345;51.522;10.702;2023-04-10T16:33:06;98978.75;;;15.44;54.37
45621;BME280;31345;51.522;10.702;2023-04-10T16:35:39;98970.53;;;15.37;52.55
45621;BME280;31345;51.522;10.702;2023-04-10T16:38:12;98974.72;;;15.30;53.68
45621;BME280;31345;51.522;10.702;2023-04-10T16:40:44;98967.16;;;15.15;53.77
45621;BME280;31345;51.522;10.702;2023-04-10T16:43:18;98965.47;;;15.04;55.03
45621;BME280;31345;51.522;10.702;2023-04-10T16:45:53;98963.72;;;14.94;54.64
45621;BME280;31345;51.522;10.702;2023-04-10T16:48:26;98962.75;;;14.85;55.29
45621;BME280;31345;51.522;10.702;2023-04-10T16:50:54;98964.59;;;14.73;54.86
45621;BME280;31345;51.522;10.702;2023-04-10T16:53:29;98960.31;;;14.72;55.60
45621;BME280;31345;51.522;10.702;2023-04-10T16:56:02;98952.56;;;14.70;54.98
45621;BME280;31345;51.522;10.702;2023-04-10T16:58:31;98950.59;;;14.62;56.23
45621;BME280;31345;51.522;10.702;2023-04-10T17:01:16;98951.09;;;14.56;56.40
45621;BME280;31345;51.522;10.702;2023-04-10T17:03:45;98957.38;;;14.65;54.64
45621;BME280;31345;51.522;10.702;2023-04-10T17:06:13;98956.78;;;14.61;54.30
45621;BME280;31345;51.522;10.702;2023-04-10T17:08:47;98950.28;;;14.56;55.66
45621;BME280;31345;51.522;10.702;2023-04-10T17:11:20;98956.22;;;14.58;56.41
45621;BME280;31345;51.522;10.702;2023-04-10T17:13:49;98953.84;;;14.55;55.20
45621;BME280;31345;51.522;10.702;2023-04-10T17:16:22;98947.91;;;14.52;54.77
45621;BME280;31345;51.522;10.702;2023-04-10T17:18:49;98949.00;;;14.50;56.67
45621;BME280;31345;51.522;10.702;2023-04-10T17:21:22;98944.25;;;14.44;57.24
45621;BME280;31345;51.522;10.702;2023-04-10T17:23:49;98946.44;;;14.38;58.31
45621;BME280;31345;51.522;10.702;2023-04-10T17:26:17;98945.78;;;14.25;59.22
45621;BME280;31345;51.522;10.702;2023-04-10T17:28:46;98940.59;;;14.13;59.80
45621;BME280;31345;51.522;10.702;2023-04-10T17:31:16;98931.56;;;14.06;60.83
45621;BME280;31345;51.522;10.702;2023-04-10T17:33:48;98934.38;;;13.93;60.82
45621;BME280;31345;51.522;10.702;2023-04-10T17:36:16;98921.53;;;13.79;61.54
45621;BME280;31345;51.522;10.702;2023-04-10T17:38:49;98919.09;;;13.66;61.95
45621;BME280;31345;51.522;10.702;2023-04-10T17:41:17;98915.97;;;13.60;61.67
45621;BME280;31345;51.522;10.702;2023-04-10T17:43:50;98906.69;;;13.45;63.08
45621;BME280;31345;51.522;10.702;2023-04-10T17:46:19;98912.44;;;13.39;61.83
45621;BME280;31345;51.522;10.702;2023-04-10T17:48:52;98907.91;;;13.29;63.63
45621;BME280;31345;51.522;10.702;2023-04-10T17:51:28;98904.97;;;13.22;63.42
45621;BME280;31345;51.522;10.702;2023-04-10T17:54:02;98902.63;;;13.08;62.80
45621;BME280;31345;51.522;10.702;2023-04-10T17:56:29;98900.94;;;13.07;64.42
45621;BME280;31345;51.522;10.702;2023-04-10T17:59:02;98908.34;;;13.02;64.68
45621;BME280;31345;51.522;10.702;2023-04-10T18:01:36;98909.06;;;12.92;64.81
45621;BME280;31345;51.522;10.702;2023-04-10T18:04:04;98905.63;;;12.80;63.61
45621;BME280;31345;51.522;10.702;2023-04-10T18:06:31;98902.41;;;12.77;65.02
45621;BME280;31345;51.522;10.702;2023-04-10T18:08:59;98901.56;;;12.65;65.25
45621;BME280;31345;51.522;10.702;2023-04-10T18:11:27;98894.31;;;12.57;65.15
45621;BME280;31345;51.522;10.702;2023-04-10T18:13:54;98896.69;;;12.49;65.74
45621;BME280;31345;51.522;10.702;2023-04-10T18:16:27;98897.88;;;12.44;66.41
45621;BME280;31345;51.522;10.702;2023-04-10T18:19:02;98892.13;;;12.39;66.44
45621;BME280;31345;51.522;10.702;2023-04-10T18:21:31;98895.25;;;12.44;67.44
45621;BME280;31345;51.522;10.702;2023-04-10T18:24:05;98895.47;;;12.41;67.87
45621;BME280;31345;51.522;10.702;2023-04-10T18:26:38;98895.72;;;12.38;68.14
45621;BME280;31345;51.522;10.702;2023-04-10T18:29:06;98886.19;;;12.37;67.26
45621;BME280;31345;51.522;10.702;2023-04-10T18:31:34;98883.09;;;12.32;67.14
45621;BME280;31345;51.522;10.702;2023-04-10T18:34:08;98879.16;;;12.26;67.11
45621;BME280;31345;51.522;10.702;2023-04-10T18:36:36;98878.53;;;12.23;67.61
45621;BME280;31345;51.522;10.702;2023-04-10T18:39:09;98878.19;;;12.27;68.36
45621;BME280;31345;51.522;10.702;2023-04-10T18:41:42;98885.31;;;12.25;67.19
45621;BME280;31345;51.522;10.702;2023-04-10T18:44:09;98875.56;;;12.27;67.11
45621;BME280;31345;51.522;10.702;2023-04-10T18:46:42;98867.69;;;12.16;68.04
45621;BME280;31345;51.522;10.702;2023-04-10T18:49:16;98867.91;;;12.13;68.27
45621;BME280;31345;51.522;10.702;2023-04-10T18:51:48;98872.34;;;12.12;69.07
45621;BME280;31345;51.522;10.702;2023-04-10T18:54:16;98863.50;;;12.13;70.07
45621;BME280;31345;51.522;10.702;2023-04-10T18:56:48;98853.25;;;12.10;69.15
45621;BME280;31345;51.522;10.702;2023-04-10T18:59:21;98855.25;;;11.95;70.70
45621;BME280;31345;51.522;10.702;2023-04-10T19:01:49;98852.16;;;12.01;70.48
45621;BME280;31345;51.522;10.702;2023-04-10T19:04:18;98852.16;;;12.01;70.05
45621;BME280;31345;51.522;10.702;2023-04-10T19:06:46;98846.63;;;11.93;70.73
45621;BME280;31345;51.522;10.702;2023-04-10T19:09:13;98840.06;;;11.87;71.24
45621;BME280;31345;51.522;10.702;2023-04-10T19:11:46;98835.75;;;11.75;72.08
45621;BME280;31345;51.522;10.702;2023-04-10T19:14:14;98830.31;;;11.78;72.60
45621;BME280;31345;51.522;10.702;2023-04-10T19:16:47;98833.00;;;11.65;70.34
45621;BME280;31345;51.522;10.702;2023-04-10T19:19:20;98828.16;;;11.72;71.11
45621;BME280;31345;51.522;10.702;2023-04-10T19:21:53;98825.28;;;11.63;71.36
45621;BME280;31345;51.522;10.702;2023-04-10T19:24:26;98820.16;;;11.62;72.57
45621;BME280;31345;51.522;10.702;2023-04-10T19:26:59;98816.69;;;11.61;70.98
45621;BME280;31345;51.522;10.702;2023-04-10T19:29:32;98814.81;;;11.63;69.71
45621;BME280;31345;51.522;10.702;2023-04-10T19:32:05;98814.06;;;11.61;69.91
45621;BME280;31345;51.522;10.702;2023-04-10T19:34:34;98809.56;;;11.63;70.86
45621;BME280;31345;51.522;10.702;2023-04-10T19:37:01;98807.19;;;11.60;70.73
45621;BME280;31345;51.522;10.702;2023-04-10T19:39:34;98800.03;;;11.62;71.79
45621;BME280;31345;51.522;10.702;2023-04-10T19:42:06;98802.19;;;11.68;72.50
45621;BME280;31345;51.522;10.702;2023-04-10T19:44:39;98796.34;;;11.65;70.85
45621;BME280;31345;51.522;10.702;2023-04-10T19:47:12;98792.16;;;11.62;72.33
45621;BME280;31345;51.522;10.702;2023-04-10T19:49:48;98789.06;;;11.57;71.02
45621;BME280;31345;51.522;10.702;2023-04-10T19:52:16;98778.38;;;11.60;71.76
45621;BME280;31345;51.522;10.702;2023-04-10T19:54:43;98781.81;;;11.61;72.21
45621;BME280;31345;51.522;10.702;2023-04-10T19:57:16;98776.19;;;11.54;71.74
45621;BME280;31345;51.522;10.702;2023-04-10T19:59:44;98761.94;;;11.58;71.78
45621;BME280;31345;51.522;10.702;2023-04-10T20:02:11;98754.81;;;11.60;71.66
45621;BME280;31345;51.522;10.702;2023-04-10T20:04:45;98746.59;;;11.65;72.28
45621;BME280;31345;51.522;10.702;2023-04-10T20:07:19;98751.56;;;11.56;72.64
45621;BME280;31345;51.522;10.702;2023-04-10T20:09:51;98756.91;;;11.55;71.71
45621;BME280;31345;51.522;10.702;2023-04-10T20:12:24;98748.59;;;11.50;71.44
45621;BME280;31345;51.522;10.702;2023-04-10T20:14:52;98745.75;;;11.53;72.08
45621;BME280;31345;51.522;10.702;2023-04-10T20:17:25;98748.47;;;11.51;70.48
45621;BME280;31345;51.522;10.702;2023-04-10T20:19:57;98752.66;;;11.54;70.77
45621;BME280;31345;51.522;10.702;2023-04-10T20:22:31;98752.78;;;11.64;68.76
45621;BME280;31345;51.522;10.702;2023-04-10T20:25:05;98760.31;;;11.68;69.56
45621;BME280;31345;51.522;10.702;2023-04-10T20:27:32;98755.75;;;11.70;69.22
45621;BME280;31345;51.522;10.702;2023-04-10T20:30:06;98746.97;;;11.72;68.60
45621;BME280;31345;51.522;10.702;2023-04-10T20:32:39;98738.75;;;11.76;68.42
45621;BME280;31345;51.522;10.702;2023-04-10T20:35:12;98730.78;;;11.78;68.82
45621;BME280;31345;51.522;10.702;2023-04-10T20:37:46;98720.16;;;11.68;68.64
45621;BME280;31345;51.522;10.702;2023-04-10T20:40:18;98722.56;;;11.71;68.14
45621;BME280;31345;51.522;10.702;2023-04-10T20:42:46;98719.22;;;11.69;68.91
45621;BME280;31345;51.522;10.702;2023-04-10T20:45:14;98713.84;;;11.70;70.21
45621;BME280;31345;51.522;10.702;2023-04-10T20:47:46;98700.41;;;11.64;69.60
45621;BME280;31345;51.522;10.702;2023-04-10T20:50:19;98700.41;;;11.64;69.68
45621;BME280;31345;51.522;10.702;2023-04-10T20:52:54;98690.06;;;11.62;67.68
45621;BME280;31345;51.522;10.702;2023-04-10T20:55:21;98689.81;;;11.65;67.53
45621;BME280;31345;51.522;10.702;2023-04-10T20:57:49;98694.34;;;11.63;69.50
45621;BME280;31345;51.522;10.702;2023-04-10T21:00:17;98689.81;;;11.65;68.75
45621;BME280;31345;51.522;10.702;2023-04-10T21:02:44;98686.00;;;11.69;66.50
45621;BME280;31345;51.522;10.702;2023-04-10T21:05:12;98667.22;;;11.64;67.17
45621;BME280;31345;51.522;10.702;2023-04-10T21:07:44;98672.44;;;11.64;67.35
45621;BME280;31345;51.522;10.702;2023-04-10T21:10:19;98666.25;;;11.65;66.50
45621;BME280;31345;51.522;10.702;2023-04-10T21:12:46;98668.88;;;11.65;66.48
45621;BME280;31345;51.522;10.702;2023-04-10T21:15:14;98669.94;;;11.63;66.61
45621;BME280;31345;51.522;10.702;2023-04-10T21:17:46;98673.41;;;11.63;66.72
45621;BME280;31345;51.522;10.702;2023-04-10T21:20:19;98661.88;;;11.66;66.11
45621;BME280;31345;51.522;10.702;2023-04-10T21:22:52;98657.81;;;11.62;66.00
45621;BME280;31345;51.522;10.702;2023-04-10T21:25:21;98659.47;;;11.63;66.92
45621;BME280;31345;51.522;10.702;2023-04-10T21:27:48;98653.63;;;11.59;66.76
45621;BME280;31345;51.522;10.702;2023-04-10T21:30:21;98653.50;;;11.61;66.96
45621;BME280;31345;51.522;10.702;2023-04-10T21:32:54;98651.00;;;11.59;67.33
45621;BME280;31345;51.522;10.702;2023-04-10T21:35:27;98631.41;;;11.53;67.01
45621;BME280;31345;51.522;10.702;2023-04-10T21:37:59;98621.97;;;11.51;67.58
45621;BME280;31345;51.522;10.702;2023-04-10T21:40:33;98627.19;;;11.51;68.88
45621;BME280;31345;51.522;10.702;2023-04-10T21:43:01;98612.81;;;11.45;67.12
45621;BME280;31345;51.522;10.702;2023-04-10T21:45:30;98607.72;;;11.43;68.91
45621;BME280;31345;51.522;10.702;2023-04-10T21:47:59;98615.31;;;11.47;67.16
45621;BME280;31345;51.522;10.702;2023-04-10T21:50:27;98618.88;;;11.46;66.49
45621;BME280;31345;51.522;10.702;2023-04-10T21:52:59;98620.19;;;11.51;65.97
45621;BME280;31345;51.522;10.702;2023-04-10T21:55:27;98614.63;;;11.56;66.61
45621;BME280;31345;51.522;10.702;2023-04-10T21:58:01;98613.88;;;11.54;67.50
45621;BME280;31345;51.522;10.702;2023-04-10T22:00:33;98606.41;;;11.49;67.16
45621;BME280;31345;51.522;10.702;2023-04-10T22:03:06;98609.50;;;11.43;69.63
45621;BME280;31345;51.522;10.702;2023-04-10T22:05:35;98597.94;;;11.34;68.28
45621;BME280;31345;51.522;10.702;2023-04-10T22:08:07;98614.13;;;11.28;70.23
45621;BME280;31345;51.522;10.702;2023-04-10T22:10:35;98603.66;;;11.28;68.79
45621;BME280;31345;51.522;10.702;2023-04-10T22:13:05;98602.69;;;11.29;69.58
45621;BME280;31345;51.522;10.702;2023-04-10T22:15:38;98598.53;;;11.26;68.37
45621;BME280;31345;51.522;10.702;2023-04-10T22:18:07;98591.75;;;11.24;68.79
45621;BME280;31345;51.522;10.702;2023-04-10T22:20:40;98576.75;;;11.14;73.30
45621;BME280;31345;51.522;10.702;2023-04-10T22:23:13;98564.03;;;11.10;73.18
45621;BME280;31345;51.522;10.702;2023-04-10T22:25:40;98554.97;;;10.91;77.60
45621;BME280;31345;51.522;10.702;2023-04-10T22:28:09;98555.44;;;10.85;78.02
45621;BME280;31345;51.522;10.702;2023-04-10T22:30:42;98548.06;;;10.78;77.43
45621;BME280;31345;51.522;10.702;2023-04-10T22:33:15;98545.22;;;10.82;77.08
45621;BME280;31345;51.522;10.702;2023-04-10T22:35:44;98531.63;;;10.76;77.63
45621;BME280;31345;51.522;10.702;2023-04-10T22:38:12;98527.59;;;10.72;77.89
45621;BME280;31345;51.522;10.702;2023-04-10T22:40:39;98523.09;;;10.74;75.99
45621;BME280;31345;51.522;10.702;2023-04-10T22:43:14;98511.56;;;10.77;76.29
45621;BME280;31345;51.522;10.702;2023-04-10T22:45:46;98515.03;;;10.77;75.76
45621;BME280;31345;51.522;10.702;2023-04-10T22:48:19;98511.22;;;10.82;76.62
45621;BME280;31345;51.522;10.702;2023-04-10T22:50:47;98509.31;;;10.84;76.02
45621;BME280;31345;51.522;10.702;2023-04-10T22:53:19;98512.25;;;10.79;76.17
45621;BME280;31345;51.522;10.702;2023-04-10T22:55:52;98496.22;;;10.72;76.68
45621;BME280;31345;51.522;10.702;2023-04-10T22:58:26;98491.59;;;10.76;77.37
45621;BME280;31345;51.522;10.702;2023-04-10T23:00:59;98492.66;;;10.85;76.61
45621;BME280;31345;51.522;10.702;2023-04-10T23:03:31;98488.50;;;10.82;75.60
45621;BME280;31345;51.522;10.702;2023-04-10T23:06:05;98492.91;;;10.82;75.72
45621;BME280;31345;51.522;10.702;2023-04-10T23:08:33;98507.66;;;10.83;75.91
45621;BME280;31345;51.522;10.702;2023-04-10T23:11:00;98506.59;;;10.85;75.31
45621;BME280;31345;51.522;10.702;2023-04-10T23:13:34;98501.13;;;10.88;75.33
45621;BME280;31345;51.522;10.702;2023-04-10T23:16:08;98501.25;;;10.87;75.69
45621;BME280;31345;51.522;10.702;2023-04-10T23:18:36;98487.69;;;10.82;75.89
45621;BME280;31345;51.522;10.702;2023-04-10T23:21:04;98482.69;;;10.78;75.75
45621;BME280;31345;51.522;10.702;2023-04-10T23:23:37;98474.13;;;10.76;76.43
45621;BME280;31345;51.522;10.702;2023-04-10T23:26:05;98473.31;;;10.76;77.27
45621;BME280;31345;51.522;10.702;2023-04-10T23:28:40;98471.63;;;10.75;77.92
45621;BME280;31345;51.522;10.702;2023-04-10T23:31:07;98480.88;;;10.79;76.87
45621;BME280;31345;51.522;10.702;2023-04-10T23:33:40;98482.91;;;10.75;77.09
45621;BME280;31345;51.522;10.702;2023-04-10T23:36:12;98486.97;;;10.79;77.96
45621;BME280;31345;51.522;10.702;2023-04-10T23:38:45;98480.78;;;10.81;78.20
45621;BME280;31345;51.522;10.702;2023-04-10T23:41:13;98474.72;;;10.80;80.06
45621;BME280;31345;51.522;10.702;2023-04-10T23:43:42;98474.13;;;10.76;80.95
45621;BME280;31345;51.522;10.702;2023-04-10T23:46:15;98470.91;;;10.73;81.13
45621;BME280;31345;51.522;10.702;2023-04-10T23:48:43;98479.22;;;10.78;80.18
45621;BME280;31345;51.522;10.702;2023-04-10T23:51:15;98494.91;;;10.78;80.72
45621;BME280;31345;51.522;10.702;2023-04-10T23:53:43;98489.00;;;10.76;81.33
45621;BME280;31345;51.522;10.702;2023-04-10T23:56:11;98489.00;;;10.76;81.04
45621;BME280;31345;51.522;10.702;2023-04-10T23:58:45;98473.41;;;10.74;81.57
